createdAt,value
2022-11-05T00:02:18.306Z,7.78
2022-11-05T00:05:04.926Z,7.77
2022-11-05T00:08:04.596Z,7.77
2022-11-05T00:10:36.541Z,7.75
2022-11-05T00:13:26.132Z,7.75
2022-11-05T00:16:13.007Z,7.73
2022-11-05T00:18:40.478Z,7.73
2022-11-05T00:21:27.419Z,7.73
2022-11-05T00:24:27.457Z,7.73
2022-11-05T00:26:54.887Z,7.73
2022-11-05T00:29:22.907Z,7.73
2022-11-05T00:31:52.197Z,7.73
2022-11-05T00:34:24.305Z,7.72
2022-11-05T00:36:52.380Z,7.70
2022-11-05T00:39:20.161Z,7.69
2022-11-05T00:42:09.516Z,7.68
2022-11-05T00:44:58.893Z,7.66
2022-11-05T00:47:45.285Z,7.66
2022-11-05T00:50:13.611Z,7.66
2022-11-05T00:52:56.000Z,7.64
2022-11-05T00:55:37.703Z,7.64
2022-11-05T00:58:08.359Z,7.64
2022-11-05T01:00:41.046Z,7.64
2022-11-05T01:03:12.872Z,7.64
2022-11-05T01:05:53.567Z,7.64
2022-11-05T01:08:28.933Z,7.62
2022-11-05T01:10:59.403Z,7.62
2022-11-05T01:13:30.854Z,7.62
2022-11-05T01:16:08.342Z,7.63
2022-11-05T01:18:43.262Z,7.63
2022-11-05T01:21:15.537Z,7.64
2022-11-05T01:23:43.107Z,7.64
2022-11-05T01:26:10.870Z,7.64
2022-11-05T01:28:39.196Z,7.61
2022-11-05T01:31:08.305Z,7.61
2022-11-05T01:33:38.161Z,7.61
2022-11-05T01:36:06.317Z,7.63
2022-11-05T01:38:35.203Z,7.62
2022-11-05T01:41:12.814Z,7.60
2022-11-05T01:43:47.978Z,7.60
2022-11-05T01:46:19.553Z,7.59
2022-11-05T01:48:50.456Z,7.59
2022-11-05T01:54:08.587Z,7.62
2022-11-05T01:56:41.006Z,7.64
2022-11-05T01:59:37.208Z,7.63
2022-11-05T02:02:07.536Z,7.64
2022-11-05T02:05:00.392Z,7.64
2022-11-05T02:07:29.340Z,7.65
2022-11-05T02:10:07.204Z,7.66
2022-11-05T02:12:37.894Z,7.67
2022-11-05T02:15:10.479Z,7.68
2022-11-05T02:17:51.585Z,7.69
2022-11-05T02:20:32.723Z,7.68
2022-11-05T02:23:12.557Z,7.69
2022-11-05T02:26:04.825Z,7.69
2022-11-05T02:29:02.351Z,7.70
2022-11-05T02:31:37.528Z,7.68
2022-11-05T02:34:33.539Z,7.66
2022-11-05T02:37:16.263Z,7.69
2022-11-05T02:40:16.570Z,7.70
2022-11-05T02:43:08.918Z,7.71
2022-11-05T02:46:15.086Z,7.71
2022-11-05T02:49:14.376Z,7.71
2022-11-05T02:51:57.953Z,7.72
2022-11-05T02:54:38.463Z,7.72
2022-11-05T02:57:06.842Z,7.69
2022-11-05T02:59:43.573Z,7.68
2022-11-05T03:02:38.532Z,7.70
2022-11-05T03:05:07.361Z,7.70
2022-11-05T03:07:55.607Z,7.70
2022-11-05T03:10:47.318Z,7.70
2022-11-05T03:13:27.078Z,7.68
2022-11-05T03:16:02.590Z,7.68
2022-11-05T03:18:38.984Z,7.67
2022-11-05T03:21:38.724Z,7.66
2022-11-05T03:24:17.413Z,7.68
2022-11-05T03:26:56.355Z,7.69
2022-11-05T03:29:33.740Z,7.70
2022-11-05T03:32:04.097Z,7.71
2022-11-05T03:34:40.722Z,7.73
2022-11-05T03:37:11.693Z,7.74
2022-11-05T03:39:47.544Z,7.73
2022-11-05T03:42:18.347Z,7.77
2022-11-05T03:45:17.134Z,7.79
2022-11-05T03:47:48.950Z,7.81
2022-11-05T03:50:59.627Z,7.82
2022-11-05T03:53:31.863Z,7.84
2022-11-05T03:56:11.192Z,7.86
2022-11-05T03:58:43.851Z,7.87
2022-11-05T04:01:16.787Z,7.87
2022-11-05T04:03:45.644Z,7.87
2022-11-05T04:06:33.964Z,7.87
2022-11-05T04:09:20.139Z,7.88
2022-11-05T04:12:09.983Z,7.89
2022-11-05T04:14:45.516Z,7.90
2022-11-05T04:17:14.219Z,7.91
2022-11-05T04:20:26.377Z,7.93
2022-11-05T04:23:33.783Z,7.93
2022-11-05T04:26:10.230Z,7.95
2022-11-05T04:28:57.819Z,7.94
2022-11-05T04:31:25.217Z,7.96
2022-11-05T04:33:54.288Z,7.95
2022-11-05T04:39:51.156Z,7.98
2022-11-05T04:42:38.603Z,7.97
2022-11-05T04:45:30.997Z,7.98
2022-11-05T04:48:20.156Z,7.99
2022-11-05T04:54:26.423Z,8.00
2022-11-05T04:57:21.367Z,8.01
2022-11-05T05:06:43.393Z,8.00
2022-11-05T05:12:39.240Z,8.01
2022-11-05T05:15:14.867Z,8.03
2022-11-05T05:17:53.633Z,8.04
2022-11-05T05:20:51.091Z,8.03
2022-11-05T05:23:47.964Z,8.02
2022-11-05T05:26:22.043Z,8.00
2022-11-05T05:29:08.404Z,8.00
2022-11-05T05:31:56.173Z,8.00
2022-11-05T05:41:42.155Z,8.01
2022-11-05T05:44:22.301Z,8.02
2022-11-05T05:46:58.186Z,8.04
2022-11-05T05:49:37.425Z,8.07
2022-11-05T05:52:12.234Z,8.09
2022-11-05T05:55:02.097Z,8.09
2022-11-05T05:57:43.025Z,8.11
2022-11-05T06:00:18.316Z,8.14
2022-11-05T06:02:56.296Z,8.15
2022-11-05T06:05:31.879Z,8.16
2022-11-05T06:08:17.185Z,8.17
2022-11-05T06:10:55.210Z,8.16
2022-11-05T06:13:31.670Z,8.15
2022-11-05T06:16:09.156Z,8.17
2022-11-05T06:18:47.915Z,8.20
2022-11-05T06:21:23.993Z,8.23
2022-11-05T06:24:04.299Z,8.25
2022-11-05T06:34:18.664Z,8.35
2022-11-05T06:36:53.643Z,8.38
2022-11-05T06:39:22.266Z,8.38
2022-11-05T06:42:16.629Z,8.41
2022-11-05T06:44:38.469Z,8.42
2022-11-05T06:47:07.681Z,8.43
2022-11-05T06:49:42.957Z,8.44
2022-11-05T06:52:12.404Z,8.44
2022-11-05T06:54:44.122Z,8.45
2022-11-05T06:57:20.970Z,8.47
2022-11-05T07:00:37.074Z,8.49
2022-11-05T07:05:50.837Z,8.53
2022-11-05T07:08:19.122Z,8.56
2022-11-05T07:10:46.672Z,8.58
2022-11-05T07:13:16.221Z,8.59
2022-11-05T07:15:45.557Z,8.61
2022-11-05T07:18:13.232Z,8.64
2022-11-05T07:20:41.808Z,8.66
2022-11-05T07:23:15.290Z,8.68
2022-11-05T07:25:44.973Z,8.70
2022-11-05T07:28:14.643Z,8.71
2022-11-05T07:30:42.645Z,8.72
2022-11-05T07:33:12.906Z,8.74
2022-11-05T07:35:41.373Z,8.75
2022-11-05T07:38:10.357Z,8.79
2022-11-05T07:40:39.398Z,8.81
2022-11-05T07:43:08.074Z,8.84
2022-11-05T07:45:37.045Z,8.87
2022-11-05T07:48:05.982Z,8.89
2022-11-05T07:50:37.181Z,8.90
2022-11-05T08:00:37.489Z,8.96
2022-11-05T08:20:19.498Z,9.19
2022-11-05T08:23:09.492Z,9.23
2022-11-05T08:25:45.322Z,9.26
2022-11-05T08:42:04.160Z,9.41
2022-11-05T08:45:20.330Z,9.44
2022-11-05T08:48:01.790Z,9.50
2022-11-05T08:50:30.265Z,9.54
2022-11-05T08:52:59.723Z,9.58
2022-11-05T08:58:58.865Z,9.61
2022-11-05T09:01:27.676Z,9.60
2022-11-05T09:03:56.682Z,9.60
2022-11-05T09:06:24.770Z,9.58
2022-11-05T09:08:52.891Z,9.59
2022-11-05T09:11:29.369Z,9.60
2022-11-05T09:14:10.218Z,9.65
2022-11-05T09:16:38.452Z,9.67
2022-11-05T09:19:06.543Z,9.71
2022-11-05T09:21:37.374Z,9.74
2022-11-05T09:24:07.373Z,9.76
2022-11-05T09:26:38.329Z,9.76
2022-11-05T09:29:10.327Z,9.77
2022-11-05T09:31:42.125Z,9.80
2022-11-05T09:34:11.918Z,9.80
2022-11-05T09:36:40.987Z,9.80
2022-11-05T09:39:09.650Z,9.80
2022-11-05T09:41:42.414Z,9.79
2022-11-05T09:44:17.460Z,9.77
2022-11-05T09:46:54.414Z,9.78
2022-11-05T09:49:39.824Z,9.81
2022-11-05T09:52:33.897Z,9.86
2022-11-05T09:58:15.308Z,9.97
2022-11-05T10:00:45.068Z,10.04
2022-11-05T10:07:54.235Z,10.13
2022-11-05T10:39:13.106Z,10.23
2022-11-05T10:47:19.159Z,10.01
2022-11-05T10:54:25.219Z,10.01
2022-11-05T10:57:41.413Z,10.09
2022-11-05T11:00:24.807Z,10.16
2022-11-05T11:17:28.006Z,10.71
2022-11-05T11:20:30.579Z,10.73
2022-11-05T11:28:33.122Z,11.03
2022-11-05T11:36:05.107Z,10.95
2022-11-05T11:39:29.026Z,10.92
2022-11-05T11:42:00.408Z,10.97
2022-11-05T11:44:40.998Z,10.97
2022-11-05T11:47:15.997Z,10.97
2022-11-05T11:49:55.462Z,10.88
2022-11-05T11:52:41.079Z,10.88
2022-11-05T11:55:18.259Z,10.94
2022-11-05T11:58:06.647Z,10.95
2022-11-05T12:00:50.593Z,10.97
2022-11-05T12:03:38.081Z,10.98
2022-11-05T12:06:33.986Z,10.94
2022-11-05T12:09:08.033Z,10.91
2022-11-05T12:11:58.930Z,10.90
2022-11-05T12:14:46.639Z,10.81
2022-11-05T12:17:27.092Z,10.82
2022-11-05T12:20:30.681Z,10.87
2022-11-05T12:23:06.925Z,10.93
2022-11-05T12:26:07.388Z,10.95
2022-11-05T12:29:18.391Z,10.93
2022-11-05T12:32:25.845Z,10.92
2022-11-05T12:35:27.370Z,10.92
2022-11-05T12:38:09.242Z,10.90
2022-11-05T12:40:54.813Z,10.97
2022-11-05T12:43:53.663Z,11.01
2022-11-05T12:46:24.379Z,11.01
2022-11-05T12:49:17.907Z,10.96
2022-11-05T12:52:09.390Z,10.90
2022-11-05T12:54:55.175Z,10.89
2022-11-05T12:57:24.005Z,10.86
2022-11-05T12:59:58.532Z,10.88
2022-11-05T13:02:28.646Z,10.90
2022-11-05T13:05:17.496Z,10.87
2022-11-05T13:08:00.851Z,10.78
2022-11-05T13:10:41.161Z,10.77
2022-11-05T13:13:37.651Z,10.80
2022-11-05T13:16:11.316Z,10.80
2022-11-05T13:18:53.001Z,10.81
2022-11-05T13:21:25.299Z,10.80
2022-11-05T13:24:14.898Z,10.80
2022-11-05T13:26:54.087Z,10.80
2022-11-05T13:29:49.937Z,10.78
2022-11-05T13:32:24.368Z,10.79
2022-11-05T13:34:55.048Z,10.76
2022-11-05T13:37:49.185Z,10.67
2022-11-05T13:40:22.635Z,10.62
2022-11-05T13:43:17.339Z,10.56
2022-11-05T13:46:13.163Z,10.55
2022-11-05T13:48:59.054Z,10.53
2022-11-05T13:51:48.180Z,10.49
2022-11-05T13:54:32.906Z,10.51
2022-11-05T13:57:38.896Z,10.54
2022-11-05T14:00:07.895Z,10.62
2022-11-05T14:02:43.280Z,10.71
2022-11-05T14:05:29.718Z,10.72
2022-11-05T14:08:07.613Z,10.78
2022-11-05T14:10:56.683Z,10.81
2022-11-05T14:13:42.005Z,10.83
2022-11-05T14:16:22.067Z,10.78
2022-11-05T14:19:11.373Z,10.73
2022-11-05T14:21:56.799Z,10.72
2022-11-05T14:24:44.031Z,10.68
2022-11-05T14:27:33.061Z,10.62
2022-11-05T14:30:44.267Z,10.66
2022-11-05T14:33:40.390Z,10.67
2022-11-05T14:36:21.851Z,10.74
2022-11-05T14:38:53.407Z,10.72
2022-11-05T14:41:22.186Z,10.71
2022-11-05T14:44:01.090Z,10.68
2022-11-05T14:46:46.922Z,10.64
2022-11-05T14:49:26.298Z,10.58
2022-11-05T14:51:59.522Z,10.54
2022-11-05T14:54:48.311Z,10.49
2022-11-05T14:57:40.463Z,10.38
2022-11-05T15:00:40.559Z,10.34
2022-11-05T15:03:47.188Z,10.37
2022-11-05T15:06:37.843Z,10.34
2022-11-05T15:09:19.284Z,10.26
2022-11-05T15:11:56.489Z,10.21
2022-11-05T15:14:42.642Z,10.19
2022-11-05T15:17:29.513Z,10.18
2022-11-05T15:20:08.184Z,10.11
2022-11-05T15:22:44.557Z,10.08
2022-11-05T15:25:27.570Z,10.03
2022-11-05T15:28:08.219Z,9.90
2022-11-05T15:30:36.412Z,9.77
2022-11-05T15:33:31.058Z,9.67
2022-11-05T15:36:19.929Z,9.57
2022-11-05T15:39:15.157Z,9.51
2022-11-05T15:41:38.379Z,9.40
2022-11-05T15:44:06.131Z,9.28
2022-11-05T15:46:34.595Z,9.23
2022-11-05T15:49:11.268Z,9.20
2022-11-05T15:51:39.961Z,9.18
2022-11-05T15:54:36.037Z,9.20
2022-11-05T15:57:19.931Z,9.15
2022-11-05T15:59:49.728Z,9.07
2022-11-05T16:02:34.648Z,9.03
2022-11-05T16:05:09.985Z,9.04
2022-11-05T16:07:43.679Z,9.05
2022-11-05T16:10:20.963Z,9.05
2022-11-05T16:12:49.747Z,9.02
2022-11-05T16:15:29.177Z,9.00
2022-11-05T16:17:59.690Z,9.00
2022-11-05T16:20:34.509Z,8.99
2022-11-05T16:23:21.683Z,8.94
2022-11-05T16:25:52.331Z,8.89
2022-11-05T16:28:24.292Z,8.86
2022-11-05T16:31:00.499Z,8.88
2022-11-05T16:33:50.781Z,8.89
2022-11-05T16:36:20.178Z,8.84
2022-11-05T16:38:50.307Z,8.78
2022-11-05T16:41:22.717Z,8.77
2022-11-05T16:43:58.355Z,8.78
2022-11-05T16:46:28.744Z,8.80
2022-11-05T16:48:58.290Z,8.81
2022-11-05T16:51:28.534Z,8.84
2022-11-05T16:53:58.925Z,8.87
2022-11-05T16:56:27.361Z,8.89
2022-11-05T16:58:55.261Z,8.93
2022-11-05T17:01:27.737Z,8.96
2022-11-05T17:03:55.606Z,8.97
2022-11-05T17:06:25.191Z,8.97
2022-11-05T17:08:55.211Z,8.94
2022-11-05T17:11:24.059Z,8.89
2022-11-05T17:13:54.034Z,8.89
2022-11-05T17:16:23.679Z,8.89
2022-11-05T17:18:54.238Z,8.88
2022-11-05T17:21:23.980Z,8.84
2022-11-05T17:23:53.247Z,8.82
2022-11-05T17:26:23.254Z,8.83
2022-11-05T17:28:51.564Z,8.88
2022-11-05T17:31:21.379Z,8.90
2022-11-05T17:33:49.291Z,8.92
2022-11-05T17:36:20.131Z,8.94
2022-11-05T17:38:48.661Z,8.94
2022-11-05T17:41:20.310Z,8.96
2022-11-05T17:43:53.209Z,8.97
2022-11-05T17:46:21.776Z,8.97
2022-11-05T17:48:50.710Z,8.95
2022-11-05T17:51:21.758Z,8.94
2022-11-05T17:53:50.868Z,8.93
2022-11-05T17:56:28.864Z,8.93
2022-11-05T17:59:04.059Z,8.92
2022-11-05T18:01:35.982Z,8.93
2022-11-05T18:04:09.074Z,8.94
2022-11-05T18:06:40.180Z,8.95
2022-11-05T18:09:10.332Z,8.94
2022-11-05T18:11:40.390Z,8.95
2022-11-05T18:14:09.279Z,8.93
2022-11-05T18:16:37.710Z,8.93
2022-11-05T18:19:06.629Z,8.96
2022-11-05T18:21:36.844Z,8.98
2022-11-05T18:24:06.867Z,8.98
2022-11-05T18:26:35.868Z,9.00
2022-11-05T18:29:08.469Z,9.03
2022-11-05T18:31:42.003Z,9.03
2022-11-05T18:34:11.035Z,9.03
2022-11-05T18:36:42.089Z,9.01
2022-11-05T18:39:12.237Z,8.99
2022-11-05T18:41:42.107Z,9.01
2022-11-05T18:44:15.647Z,9.01
2022-11-05T18:46:57.707Z,9.01
2022-11-05T18:49:27.507Z,9.00
2022-11-05T18:51:55.944Z,9.00
2022-11-05T18:54:27.632Z,9.01
2022-11-05T18:56:59.508Z,9.01
2022-11-05T18:59:39.133Z,9.01
2022-11-05T19:02:12.871Z,9.03
2022-11-05T19:05:00.391Z,9.03
2022-11-05T19:07:31.206Z,9.02
2022-11-05T19:10:03.561Z,9.04
2022-11-05T19:12:34.946Z,9.03
2022-11-05T19:15:04.701Z,9.00
2022-11-05T19:17:35.258Z,8.98
2022-11-05T19:20:07.070Z,8.97
2022-11-05T19:22:41.540Z,8.99
2022-11-05T19:25:10.619Z,8.99
2022-11-05T19:27:41.198Z,8.97
2022-11-05T19:30:12.722Z,8.94
2022-11-05T19:32:43.058Z,8.90
2022-11-05T19:35:12.447Z,8.85
2022-11-05T19:37:41.048Z,8.85
2022-11-05T19:40:10.819Z,8.86
2022-11-05T19:42:39.410Z,8.84
2022-11-05T19:45:38.301Z,8.82
2022-11-05T19:48:01.356Z,8.80
2022-11-05T19:50:32.830Z,8.80
2022-11-05T19:53:02.836Z,8.75
2022-11-05T19:55:32.450Z,8.71
2022-11-05T19:58:03.211Z,8.68
2022-11-05T20:00:35.223Z,8.64
2022-11-05T20:03:06.963Z,8.55
2022-11-05T20:05:35.741Z,8.50
2022-11-05T20:08:06.087Z,8.46
2022-11-05T20:10:40.899Z,8.43
2022-11-05T20:13:19.465Z,8.42
2022-11-05T20:15:48.600Z,8.41
2022-11-05T20:18:24.718Z,8.34
2022-11-05T20:21:09.099Z,8.26
2022-11-05T20:23:39.419Z,8.21
2022-11-05T20:26:08.822Z,8.15
2022-11-05T20:28:40.810Z,8.09
2022-11-05T20:31:14.933Z,8.06
2022-11-05T20:33:46.371Z,8.08
2022-11-05T20:36:22.508Z,8.09
2022-11-05T20:38:55.544Z,8.04
2022-11-05T20:41:26.511Z,7.98
2022-11-05T20:43:56.862Z,7.90
2022-11-05T20:46:24.860Z,7.85
2022-11-05T20:48:56.242Z,7.85
2022-11-05T20:51:25.476Z,7.85
2022-11-05T20:53:57.851Z,7.84
2022-11-05T20:56:29.673Z,7.81
2022-11-05T20:59:05.101Z,7.75
2022-11-05T21:01:33.984Z,7.68
2022-11-05T21:04:04.223Z,7.63
2022-11-05T21:06:36.602Z,7.61
2022-11-05T21:09:07.660Z,7.56
2022-11-05T21:11:55.732Z,7.50
2022-11-05T21:14:27.745Z,7.42
2022-11-05T21:16:57.297Z,7.39
2022-11-05T21:19:26.666Z,7.34
2022-11-05T21:21:55.653Z,7.26
2022-11-05T21:24:25.537Z,7.18
2022-11-05T21:26:54.834Z,7.11
2022-11-05T21:29:23.411Z,7.08
2022-11-05T21:31:53.523Z,7.06
2022-11-05T21:34:23.581Z,7.05
2022-11-05T21:36:55.805Z,7.04
2022-11-05T21:39:26.801Z,7.03
2022-11-05T21:41:56.232Z,7.01
2022-11-05T21:44:24.510Z,7.00
2022-11-05T21:46:58.336Z,6.96
2022-11-05T21:49:30.604Z,6.93
2022-11-05T21:52:17.323Z,6.89
2022-11-05T21:55:06.841Z,6.86
2022-11-05T21:57:53.927Z,6.84
2022-11-05T22:00:25.812Z,6.80
2022-11-05T22:02:54.968Z,6.72
2022-11-05T22:05:28.961Z,6.69
2022-11-05T22:07:56.752Z,6.66
2022-11-05T22:10:24.651Z,6.66
2022-11-05T22:12:54.672Z,6.66
2022-11-05T22:15:24.409Z,6.65
2022-11-05T22:17:52.885Z,6.58
2022-11-05T22:20:22.719Z,6.52
2022-11-05T22:22:51.842Z,6.50
2022-11-05T22:25:21.219Z,6.47
2022-11-05T22:27:48.845Z,6.39
2022-11-05T22:30:20.788Z,6.30
2022-11-05T22:32:51.949Z,6.16
2022-11-05T22:35:20.654Z,6.04
2022-11-05T22:37:49.210Z,5.98
2022-11-05T22:40:19.003Z,5.89
2022-11-05T22:42:48.649Z,5.83
2022-11-05T22:45:16.692Z,5.82
2022-11-05T22:47:45.381Z,5.78
2022-11-05T22:50:15.601Z,5.73
2022-11-05T22:52:43.343Z,5.69
2022-11-05T22:55:13.091Z,5.67
2022-11-05T22:57:42.483Z,5.61
2022-11-05T23:00:17.641Z,5.58
2022-11-05T23:02:45.188Z,5.51
2022-11-05T23:05:13.556Z,5.45
2022-11-05T23:08:00.520Z,5.45
2022-11-05T23:10:48.834Z,5.47
2022-11-05T23:13:16.730Z,5.45
2022-11-05T23:16:04.339Z,5.40
2022-11-05T23:18:51.050Z,5.28
2022-11-05T23:21:36.981Z,5.16
2022-11-05T23:24:05.936Z,5.10
2022-11-05T23:26:50.763Z,5.05
2022-11-05T23:29:21.191Z,5.03
2022-11-05T23:32:08.402Z,4.99
2022-11-05T23:34:39.068Z,5.01
2022-11-05T23:37:26.759Z,5.01
2022-11-05T23:39:58.825Z,5.00
2022-11-05T23:42:44.929Z,4.97
2022-11-05T23:45:52.808Z,4.96
2022-11-05T23:48:38.420Z,4.96
2022-11-05T23:51:08.880Z,4.95
2022-11-05T23:53:39.760Z,4.93
2022-11-05T23:56:16.850Z,4.90
2022-11-05T23:58:47.407Z,4.85
